createdAt,value
2023-01-04T00:00:20.939Z,15.73
2023-01-04T00:02:49.899Z,14.52
2023-01-04T00:05:18.903Z,14.35
2023-01-04T00:07:47.756Z,16.02
2023-01-04T00:10:17.877Z,15.48
2023-01-04T00:12:46.784Z,15.05
2023-01-04T00:15:15.566Z,15.45
2023-01-04T00:17:44.547Z,15.20
2023-01-04T00:20:13.343Z,15.23
2023-01-04T00:22:42.213Z,14.63
2023-01-04T00:25:11.421Z,17.90
2023-01-04T00:27:42.315Z,16.00
2023-01-04T00:30:13.146Z,16.83
2023-01-04T00:32:42.036Z,15.93
2023-01-04T00:35:27.082Z,15.05
2023-01-04T00:38:03.268Z,13.23
2023-01-04T00:40:32.012Z,13.52
2023-01-04T00:43:02.371Z,12.73
2023-01-04T00:45:31.153Z,13.43
2023-01-04T00:47:59.867Z,13.85
2023-01-04T00:50:28.671Z,12.68
2023-01-04T00:52:57.422Z,13.27
2023-01-04T00:55:26.168Z,12.95
2023-01-04T00:57:54.887Z,13.10
2023-01-04T01:00:25.202Z,13.25
2023-01-04T01:02:54.135Z,13.32
2023-01-04T01:05:22.962Z,13.27
2023-01-04T01:07:51.775Z,13.38
2023-01-04T01:10:20.677Z,12.40
2023-01-04T01:12:49.577Z,13.65
2023-01-04T01:15:18.387Z,12.55
2023-01-04T01:17:48.499Z,13.10
2023-01-04T01:20:17.834Z,12.68
2023-01-04T01:22:46.700Z,15.10
2023-01-04T01:25:15.611Z,12.32
2023-01-04T01:27:44.376Z,12.63
2023-01-04T01:30:14.087Z,11.35
2023-01-04T01:32:42.928Z,12.13
2023-01-04T01:35:13.331Z,11.10
2023-01-04T01:37:42.152Z,11.35
2023-01-04T01:40:13.049Z,11.63
2023-01-04T01:42:42.100Z,11.27
2023-01-04T01:45:30.167Z,11.18
2023-01-04T01:48:08.428Z,12.70
2023-01-04T01:50:46.247Z,15.55
2023-01-04T01:53:16.490Z,13.88
2023-01-04T01:55:48.444Z,15.20
2023-01-04T01:58:29.755Z,16.02
2023-01-04T02:00:59.193Z,12.38
2023-01-04T02:03:36.570Z,12.40
2023-01-04T02:06:12.718Z,10.90
2023-01-04T02:08:44.158Z,11.52
2023-01-04T02:11:13.280Z,10.75
2023-01-04T02:14:02.223Z,10.77
2023-01-04T02:16:50.072Z,10.10
2023-01-04T02:19:50.682Z,10.10
2023-01-04T02:23:16.170Z,10.73
2023-01-04T02:26:36.531Z,10.05
2023-01-04T02:30:08.660Z,10.47
2023-01-04T02:33:01.243Z,11.47
2023-01-04T02:35:42.341Z,10.23
2023-01-04T02:38:20.208Z,10.32
2023-01-04T02:40:58.030Z,9.73
2023-01-04T02:43:52.666Z,9.43
2023-01-04T02:46:28.982Z,9.60
2023-01-04T02:49:18.727Z,9.57
2023-01-04T02:51:47.974Z,8.77
2023-01-04T02:54:21.366Z,10.30
2023-01-04T02:57:21.446Z,9.63
2023-01-04T03:00:29.113Z,9.52
2023-01-04T03:03:36.803Z,9.20
2023-01-04T03:06:18.564Z,9.75
2023-01-04T03:09:06.958Z,9.48
2023-01-04T03:12:03.432Z,9.93
2023-01-04T03:14:40.792Z,9.75
2023-01-04T03:17:16.082Z,9.63
2023-01-04T03:19:58.180Z,9.27
2023-01-04T03:22:57.743Z,9.05
2023-01-04T03:25:50.136Z,9.52
2023-01-04T03:28:40.339Z,9.00
2023-01-04T03:31:38.544Z,8.88
2023-01-04T03:34:25.609Z,8.10
2023-01-04T03:37:08.881Z,8.80
2023-01-04T03:40:21.027Z,8.63
2023-01-04T03:43:18.889Z,8.85
2023-01-04T03:46:13.305Z,9.67
2023-01-04T03:48:52.053Z,7.80
2023-01-04T03:51:27.675Z,8.80
2023-01-04T03:54:05.064Z,9.03
2023-01-04T03:56:41.966Z,8.55
2023-01-04T03:59:13.663Z,8.13
2023-01-04T04:01:45.479Z,8.07
2023-01-04T04:04:32.207Z,8.60
2023-01-04T04:07:18.507Z,8.27
2023-01-04T04:09:47.432Z,9.35
2023-01-04T04:12:17.931Z,8.73
2023-01-04T04:14:46.878Z,7.50
2023-01-04T04:17:15.885Z,6.97
2023-01-04T04:19:44.810Z,7.65
2023-01-04T04:22:13.774Z,7.30
2023-01-04T04:24:42.886Z,7.38
2023-01-04T04:27:11.790Z,7.93
2023-01-04T04:29:42.392Z,9.20
2023-01-04T04:32:11.699Z,8.43
2023-01-04T04:34:41.050Z,8.50
2023-01-04T04:37:10.117Z,7.60
2023-01-04T04:39:39.226Z,8.80
2023-01-04T04:42:07.197Z,8.20
2023-01-04T04:44:36.798Z,8.50
2023-01-04T04:47:07.202Z,8.70
2023-01-04T04:49:36.204Z,8.77
2023-01-04T04:52:05.242Z,8.23
2023-01-04T04:54:34.269Z,8.07
2023-01-04T04:57:03.285Z,8.73
2023-01-04T04:59:32.405Z,9.68
2023-01-04T05:02:01.558Z,8.25
2023-01-04T05:04:32.074Z,8.02
2023-01-04T05:07:00.951Z,9.57
2023-01-04T05:09:29.905Z,9.60
2023-01-04T05:12:16.406Z,11.27
2023-01-04T05:14:45.348Z,11.40
2023-01-04T05:17:14.367Z,12.60
2023-01-04T05:19:44.717Z,12.47
2023-01-04T05:22:13.616Z,10.97
2023-01-04T05:24:42.463Z,9.83
2023-01-04T05:27:11.465Z,9.27
2023-01-04T05:29:57.817Z,8.00
2023-01-04T05:32:26.628Z,8.40
2023-01-04T05:34:56.852Z,8.70
2023-01-04T05:37:26.036Z,7.77
2023-01-04T05:39:54.896Z,7.83
2023-01-04T05:42:27.982Z,7.73
2023-01-04T05:44:59.723Z,8.63
2023-01-04T05:47:30.000Z,8.55
2023-01-04T05:50:00.326Z,7.63
2023-01-04T05:52:29.435Z,7.47
2023-01-04T05:54:58.289Z,7.00
2023-01-04T05:57:27.198Z,6.65
2023-01-04T05:59:56.254Z,8.20
2023-01-04T06:02:29.046Z,7.67
2023-01-04T06:05:00.311Z,7.73
2023-01-04T06:07:30.450Z,7.23
2023-01-04T06:09:59.750Z,7.97
2023-01-04T06:12:28.613Z,6.63
2023-01-04T06:14:57.464Z,7.57
2023-01-04T06:17:27.644Z,7.17
2023-01-04T06:20:07.304Z,5.63
2023-01-04T06:22:43.164Z,5.93
2023-01-04T06:25:14.565Z,6.55
2023-01-04T06:28:40.669Z,6.00
2023-01-04T06:31:27.727Z,5.53
2023-01-04T06:33:38.459Z,5.93
2023-01-04T06:36:20.288Z,5.60
2023-01-04T06:38:59.917Z,5.93
2023-01-04T06:41:37.038Z,5.20
2023-01-04T06:44:06.640Z,5.43
2023-01-04T06:46:38.267Z,5.17
2023-01-04T06:49:23.359Z,5.20
2023-01-04T06:52:27.340Z,5.80
2023-01-04T06:55:24.008Z,6.30
2023-01-04T06:57:59.365Z,7.68
2023-01-04T07:01:09.646Z,7.37
2023-01-04T07:04:09.214Z,6.40
2023-01-04T07:07:05.075Z,5.73
2023-01-04T07:09:54.631Z,5.55
2023-01-04T07:12:43.254Z,5.57
2023-01-04T07:15:37.295Z,7.50
2023-01-04T07:18:35.606Z,7.40
2023-01-04T07:21:06.952Z,8.48
2023-01-04T07:27:15.076Z,7.25
2023-01-04T07:30:06.714Z,6.18
2023-01-04T07:36:07.695Z,5.80
2023-01-04T07:39:03.869Z,6.32
2023-01-04T07:41:44.463Z,10.10
2023-01-04T07:44:30.065Z,8.40
2023-01-04T07:50:38.931Z,8.70
2023-01-04T07:53:16.667Z,8.20
2023-01-04T07:56:53.078Z,10.38
2023-01-04T07:59:38.447Z,10.30
2023-01-04T08:02:07.655Z,9.75
2023-01-04T08:04:36.804Z,9.60
2023-01-04T08:07:06.437Z,12.55
2023-01-04T08:09:35.346Z,11.60
2023-01-04T08:12:04.556Z,10.95
2023-01-04T08:14:34.820Z,10.73
2023-01-04T08:17:03.666Z,10.27
2023-01-04T08:19:32.745Z,12.30
2023-01-04T08:22:01.572Z,12.50
2023-01-04T08:24:30.356Z,11.23
2023-01-04T08:26:59.562Z,10.00
2023-01-04T08:29:34.598Z,10.35
2023-01-04T08:32:05.647Z,9.80
2023-01-04T08:34:35.817Z,10.88
2023-01-04T08:37:18.983Z,11.57
2023-01-04T08:40:12.645Z,11.00
2023-01-04T08:42:59.067Z,16.48
2023-01-04T08:46:20.877Z,10.23
2023-01-04T08:48:42.188Z,10.93
2023-01-04T08:51:21.360Z,12.38
2023-01-04T08:53:50.160Z,15.73
2023-01-04T08:56:19.130Z,13.00
2023-01-04T08:59:01.871Z,16.30
2023-01-04T09:01:48.459Z,21.25
2023-01-04T09:05:22.529Z,18.33
2023-01-04T09:07:29.572Z,19.55
2023-01-04T09:10:09.975Z,14.35
2023-01-04T09:12:54.148Z,15.93
2023-01-04T09:15:37.283Z,11.98
2023-01-04T09:21:13.525Z,12.05
2023-01-04T09:23:48.641Z,13.32
2023-01-04T09:26:37.917Z,12.55
2023-01-04T09:30:11.516Z,11.80
2023-01-04T09:32:23.629Z,15.82
2023-01-04T09:34:52.896Z,17.38
2023-01-04T09:37:25.557Z,14.77
2023-01-04T09:40:45.238Z,12.27
2023-01-04T09:43:42.626Z,12.52
2023-01-04T09:46:34.782Z,16.90
2023-01-04T09:50:05.643Z,16.67
2023-01-04T09:52:18.039Z,17.38
2023-01-04T09:55:38.292Z,16.13
2023-01-04T09:58:55.736Z,14.63
2023-01-04T10:01:18.460Z,18.83
2023-01-04T10:04:11.665Z,21.35
2023-01-04T10:06:48.802Z,18.80
2023-01-04T10:09:30.717Z,17.92
2023-01-04T10:12:36.033Z,19.45
2023-01-04T10:15:42.377Z,18.05
2023-01-04T10:20:16.276Z,21.85
2023-01-04T10:21:41.574Z,23.55
2023-01-04T10:24:52.365Z,19.05
2023-01-04T10:28:17.198Z,15.35
2023-01-04T10:30:59.190Z,15.07
2023-01-04T10:33:45.314Z,14.32
2023-01-04T10:36:24.373Z,17.00
2023-01-04T10:39:52.437Z,21.85
2023-01-04T10:42:10.092Z,21.65
2023-01-04T10:45:03.299Z,22.67
2023-01-04T10:47:54.726Z,24.50
2023-01-04T10:50:39.321Z,24.75
2023-01-04T10:53:36.956Z,17.58
2023-01-04T10:56:43.929Z,14.85
2023-01-04T10:59:39.920Z,16.10
2023-01-04T11:02:53.421Z,17.48
2023-01-04T11:05:37.318Z,16.23
2023-01-04T11:08:41.465Z,16.23
2023-01-04T11:11:32.269Z,14.45
2023-01-04T11:15:12.074Z,16.58
2023-01-04T11:17:56.491Z,16.90
2023-01-04T11:20:55.550Z,18.10
2023-01-04T11:23:43.574Z,17.90
2023-01-04T11:26:34.022Z,17.08
2023-01-04T11:29:31.412Z,21.55
2023-01-04T11:32:07.216Z,18.25
2023-01-04T11:34:57.842Z,22.48
2023-01-04T11:37:34.760Z,22.77
2023-01-04T11:40:34.797Z,19.77
2023-01-04T11:43:30.041Z,19.73
2023-01-04T11:46:09.179Z,20.60
2023-01-04T11:49:03.220Z,20.58
2023-01-04T11:51:42.965Z,21.35
2023-01-04T11:54:24.917Z,21.25
2023-01-04T11:57:19.008Z,23.52
2023-01-04T12:00:13.212Z,33.35
2023-01-04T12:03:25.205Z,36.95
2023-01-04T12:08:54.368Z,27.75
2023-01-04T12:12:53.786Z,27.55
2023-01-04T12:15:39.689Z,32.92
2023-01-04T12:18:17.826Z,26.70
2023-01-04T12:21:12.964Z,28.67
2023-01-04T12:24:17.683Z,28.38
2023-01-04T12:27:12.473Z,24.52
2023-01-04T12:30:03.936Z,23.67
2023-01-04T12:33:27.489Z,24.80
2023-01-04T12:36:06.547Z,25.33
2023-01-04T12:39:39.262Z,27.88
2023-01-04T12:42:26.650Z,29.30
2023-01-04T12:45:25.284Z,30.35
2023-01-04T12:48:13.969Z,29.08
2023-01-04T12:51:32.996Z,28.38
2023-01-04T12:54:07.635Z,27.13
2023-01-04T13:01:12.412Z,33.88
2023-01-04T13:04:05.173Z,30.48
2023-01-04T13:11:04.488Z,31.88
2023-01-04T13:14:19.569Z,33.03
2023-01-04T13:17:22.283Z,30.92
2023-01-04T13:20:01.203Z,30.13
2023-01-04T13:23:16.125Z,30.63
2023-01-04T13:26:02.339Z,34.40
2023-01-04T13:29:13.917Z,35.03
2023-01-04T13:31:56.952Z,35.90
2023-01-04T13:34:55.855Z,33.55
2023-01-04T13:37:52.034Z,35.95
2023-01-04T13:41:02.781Z,33.38
2023-01-04T13:44:20.358Z,37.55
2023-01-04T13:47:09.021Z,36.60
2023-01-04T13:50:45.443Z,39.95
2023-01-04T13:53:29.231Z,40.28
2023-01-04T13:59:05.684Z,38.38
2023-01-04T14:01:49.805Z,38.00
2023-01-04T14:04:53.189Z,34.83
2023-01-04T14:08:06.811Z,37.35
2023-01-04T14:11:10.113Z,34.05
2023-01-04T14:14:08.497Z,45.00
2023-01-04T14:16:44.869Z,39.13
2023-01-04T14:23:47.448Z,38.97
2023-01-04T14:27:33.882Z,42.92
2023-01-04T14:30:03.219Z,50.28
2023-01-04T14:33:24.758Z,40.63
2023-01-04T14:36:02.901Z,37.15
2023-01-04T14:39:33.533Z,38.08
2023-01-04T14:42:20.921Z,49.70
2023-01-04T14:45:13.273Z,47.20
2023-01-04T14:48:52.912Z,45.33
2023-01-04T14:51:16.677Z,45.53
2023-01-04T14:54:05.809Z,46.40
2023-01-04T14:58:18.231Z,46.85
2023-01-04T14:59:46.247Z,48.85
2023-01-04T15:02:29.660Z,45.92
2023-01-04T15:05:07.443Z,49.95
2023-01-04T15:07:50.604Z,47.28
2023-01-04T15:10:25.971Z,50.08
2023-01-04T15:12:57.788Z,48.33
2023-01-04T15:15:26.666Z,44.05
2023-01-04T15:17:55.463Z,48.70
2023-01-04T15:20:24.627Z,49.28
2023-01-04T15:22:53.577Z,47.33
2023-01-04T15:25:22.494Z,52.78
2023-01-04T15:27:51.772Z,54.10
2023-01-04T15:30:22.180Z,54.22
2023-01-04T15:32:51.116Z,53.92
2023-01-04T15:35:19.982Z,54.33
2023-01-04T15:37:49.441Z,58.33
2023-01-04T15:40:20.518Z,57.58
2023-01-04T15:43:00.154Z,54.63
2023-01-04T15:45:35.920Z,51.15
2023-01-04T15:48:05.593Z,50.50
2023-01-04T15:50:37.735Z,45.85
2023-01-04T15:53:06.894Z,43.08
2023-01-04T15:55:38.494Z,46.70
2023-01-04T15:58:08.029Z,42.35
2023-01-04T16:00:39.255Z,40.42
2023-01-04T16:03:08.095Z,40.67
2023-01-04T16:05:38.068Z,42.83
2023-01-04T16:08:07.229Z,43.88
2023-01-04T16:10:36.008Z,42.28
2023-01-04T16:13:04.977Z,40.92
2023-01-04T16:15:33.857Z,39.58
2023-01-04T16:18:04.039Z,42.28
2023-01-04T16:20:32.864Z,48.03
2023-01-04T16:23:01.771Z,49.03
2023-01-04T16:25:30.588Z,55.00
2023-01-04T16:27:59.395Z,52.10
2023-01-04T16:30:29.988Z,48.53
2023-01-04T16:32:58.776Z,52.13
2023-01-04T16:35:28.988Z,50.20
2023-01-04T16:37:57.929Z,55.15
2023-01-04T16:40:26.766Z,62.40
2023-01-04T16:42:55.637Z,62.28
2023-01-04T16:45:24.383Z,64.80
2023-01-04T16:47:54.212Z,67.30
2023-01-04T16:50:23.182Z,65.13
2023-01-04T16:52:53.466Z,57.70
2023-01-04T16:55:24.225Z,51.78
2023-01-04T16:57:53.317Z,42.65
2023-01-04T17:00:22.209Z,55.28
2023-01-04T17:02:51.148Z,50.13
2023-01-04T17:05:19.964Z,51.63
2023-01-04T17:07:48.723Z,46.80
2023-01-04T17:10:21.663Z,41.60
2023-01-04T17:12:54.504Z,52.58
2023-01-04T17:18:15.004Z,51.35
2023-01-04T17:20:43.880Z,58.65
2023-01-04T17:23:12.749Z,51.67
2023-01-04T17:25:42.919Z,48.28
2023-01-04T17:28:11.725Z,43.13
2023-01-04T17:30:40.875Z,44.83
2023-01-04T17:33:09.715Z,44.70
2023-01-04T17:35:39.774Z,51.35
2023-01-04T17:38:09.354Z,46.60
2023-01-04T17:40:38.216Z,52.75
2023-01-04T17:43:08.395Z,50.35
2023-01-04T17:45:37.546Z,55.83
2023-01-04T17:48:07.213Z,58.92
2023-01-04T17:50:36.131Z,58.15
2023-01-04T17:53:04.976Z,61.78
2023-01-04T17:55:36.445Z,61.05
2023-01-04T17:58:09.762Z,64.00
2023-01-04T18:00:42.559Z,67.63
2023-01-04T18:03:11.392Z,67.97
2023-01-04T18:05:51.586Z,66.32
2023-01-04T18:08:21.892Z,57.05
2023-01-04T18:11:07.388Z,67.45
2023-01-04T18:16:29.047Z,63.95
2023-01-04T18:19:00.957Z,65.00
2023-01-04T18:21:31.964Z,64.73
2023-01-04T18:27:20.326Z,57.72
2023-01-04T18:29:42.288Z,62.35
2023-01-04T18:32:12.754Z,55.72
2023-01-04T18:34:41.714Z,57.95
2023-01-04T18:37:10.711Z,55.70
2023-01-04T18:39:39.645Z,54.17
2023-01-04T18:42:08.538Z,62.65
2023-01-04T18:44:43.842Z,58.15
2023-01-04T18:47:20.040Z,55.63
2023-01-04T18:49:49.597Z,57.78
2023-01-04T18:52:19.661Z,49.35
2023-01-04T18:54:49.286Z,52.22
2023-01-04T18:57:18.134Z,50.05
2023-01-04T18:59:50.270Z,46.20
2023-01-04T19:02:22.457Z,46.08
2023-01-04T19:04:51.443Z,49.65
2023-01-04T19:07:20.418Z,50.67
2023-01-04T19:09:49.337Z,48.30
2023-01-04T19:12:19.680Z,51.85
2023-01-04T19:14:49.971Z,67.80
2023-01-04T19:17:24.476Z,66.70
2023-01-04T19:19:53.695Z,69.95
2023-01-04T19:22:22.540Z,72.30
2023-01-04T19:24:51.471Z,69.70
2023-01-04T19:27:21.109Z,66.95
2023-01-04T19:29:49.934Z,73.93
2023-01-04T19:32:21.274Z,67.85
2023-01-04T19:34:50.149Z,70.40
2023-01-04T19:37:18.985Z,66.63
2023-01-04T19:39:47.937Z,63.92
2023-01-04T19:42:16.980Z,65.55
2023-01-04T19:44:46.009Z,60.35
2023-01-04T19:47:14.871Z,58.17
2023-01-04T19:49:45.381Z,63.17
2023-01-04T19:52:14.351Z,59.50
2023-01-04T19:54:43.539Z,55.72
2023-01-04T19:57:12.939Z,56.22
2023-01-04T19:59:41.956Z,57.95
2023-01-04T20:02:12.763Z,59.97
2023-01-04T20:04:42.071Z,63.75
2023-01-04T20:07:13.548Z,59.80
2023-01-04T20:09:42.655Z,46.72
2023-01-04T20:12:11.632Z,40.55
2023-01-04T20:14:40.466Z,50.45
2023-01-04T20:17:09.534Z,48.65
2023-01-04T20:19:38.373Z,37.85
2023-01-04T20:22:07.301Z,23.63
2023-01-04T20:24:37.791Z,22.17
2023-01-04T20:27:07.178Z,19.42
2023-01-04T20:29:36.200Z,18.48
2023-01-04T20:32:05.167Z,17.92
2023-01-04T20:34:36.016Z,16.02
2023-01-04T20:37:04.932Z,13.90
2023-01-04T20:39:33.873Z,15.48
2023-01-04T20:42:21.476Z,13.68
2023-01-04T20:44:50.375Z,13.85
2023-01-04T20:47:19.490Z,14.50
2023-01-04T20:49:49.187Z,18.60
2023-01-04T20:52:18.256Z,16.17
2023-01-04T20:54:50.412Z,19.00
2023-01-04T20:57:20.676Z,15.45
2023-01-04T20:59:49.598Z,15.50
2023-01-04T21:02:19.780Z,13.65
2023-01-04T21:04:48.751Z,17.67
2023-01-04T21:07:18.060Z,28.13
2023-01-04T21:09:46.955Z,24.75
2023-01-04T21:12:17.057Z,16.63
2023-01-04T21:14:47.376Z,14.93
2023-01-04T21:17:16.238Z,14.00
2023-01-04T21:19:45.004Z,19.88
2023-01-04T21:22:14.844Z,19.90
2023-01-04T21:24:45.223Z,15.02
2023-01-04T21:27:14.321Z,14.50
2023-01-04T21:29:47.042Z,16.50
2023-01-04T21:32:16.071Z,16.67
2023-01-04T21:34:44.990Z,11.55
2023-01-04T21:37:14.120Z,16.50
2023-01-04T21:39:42.970Z,12.15
2023-01-04T21:42:11.813Z,17.55
2023-01-04T21:44:40.594Z,21.50
2023-01-04T21:47:10.819Z,16.10
2023-01-04T21:49:44.045Z,14.80
2023-01-04T21:52:13.061Z,17.70
2023-01-04T21:54:42.044Z,18.85
2023-01-04T21:57:10.919Z,17.77
2023-01-04T21:59:40.017Z,19.63
2023-01-04T22:02:16.817Z,12.50
2023-01-04T22:04:46.249Z,16.80
2023-01-04T22:07:15.629Z,24.95
2023-01-04T22:09:44.565Z,16.10
2023-01-04T22:12:13.359Z,20.88
2023-01-04T22:14:42.114Z,19.38
2023-01-04T22:17:12.497Z,13.38
2023-01-04T22:19:41.356Z,14.15
2023-01-04T22:22:10.384Z,12.20
2023-01-04T22:24:39.253Z,12.30
2023-01-04T22:27:08.132Z,15.40
2023-01-04T22:29:37.207Z,18.77
2023-01-04T22:32:07.513Z,11.68
2023-01-04T22:34:37.920Z,12.25
2023-01-04T22:37:06.750Z,18.02
2023-01-04T22:39:35.580Z,13.57
2023-01-04T22:42:04.373Z,12.63
2023-01-04T22:44:33.493Z,19.67
2023-01-04T22:47:02.623Z,12.40
2023-01-04T22:49:31.951Z,11.43
2023-01-04T22:52:02.230Z,8.82
2023-01-04T22:54:33.058Z,8.85
2023-01-04T22:57:02.210Z,11.38
2023-01-04T22:59:30.978Z,9.15
2023-01-04T23:01:59.971Z,9.27
2023-01-04T23:04:28.909Z,10.63
2023-01-04T23:06:57.940Z,11.50
2023-01-04T23:09:28.212Z,14.18
2023-01-04T23:11:57.367Z,13.27
2023-01-04T23:14:26.304Z,12.48
2023-01-04T23:16:55.204Z,12.50
2023-01-04T23:19:24.175Z,11.57
2023-01-04T23:21:53.021Z,9.40
2023-01-04T23:24:21.886Z,9.32
2023-01-04T23:26:52.158Z,9.57
2023-01-04T23:29:21.132Z,9.57
2023-01-04T23:31:50.074Z,9.05
2023-01-04T23:34:19.012Z,8.75
2023-01-04T23:36:47.869Z,9.38
2023-01-04T23:39:17.773Z,9.02
2023-01-04T23:41:47.123Z,9.05
2023-01-04T23:46:54.845Z,9.05
2023-01-04T23:49:25.176Z,8.98
2023-01-04T23:51:55.344Z,8.32
2023-01-04T23:54:25.167Z,8.68
2023-01-04T23:56:55.113Z,7.97
2023-01-04T23:59:26.183Z,7.82
